Vader, Washington
Current Conditions -  °F | °C
As of 3:15 AM on Saturday 25 Oct 2014 (Local Time) from KCLS Reporting Station
NA  
Wind Chill: 52°   Ceiling: NA
Heat Index: 52°   Visibility: 10mi
Dew Point: 50°   Wind: 9mph
Humidity: 94%   Direction: 20°NNE
Pressure: 29.59"   Gusts: NA
Location:  46.4°N, 122.96°W
Report Text: KCLS 251015Z AUTO 02008KT 10SM 11/10 A2959 RMK AO2
Loading
Personal Weather Stations






























Interactive Weather Map
Tropical Storm Tracking
New forecast layout! Learn more

10-Day Weather Forecast

Advertisements
Track Severe Weather on mobile